Time;durP1;ratioP1;P1;durP2;ratioP2;P2;SDS_P1;SDS_P2;PMS_P1;PMS_P2;Temp;Humidity;BMP_temperature;BMP_pressure;BME280_temperature;BME280_humidity;BME280_pressure;Samples;Min_cycle;Max_cycle;Signal;HPM_P1;HPM_P2
2021/08/22 00:00:29;;;;;;;7.57;5.70;;;;;;;22.58;61.71;99801.75;812522;54;20098;-77
2021/08/22 00:01:18;;;;;;;10.38;6.03;;;;;;;22.54;61.74;99811.47;812992;54;20081;-77
2021/08/22 00:02:04;;;;;;;8.25;5.90;;;;;;;22.46;61.86;99824.53;813256;39;20442;-76
2021/08/22 00:02:59;;;;;;;7.03;5.68;;;;;;;22.35;62.53;99828.84;813099;54;20042;-78
2021/08/22 00:03:45;;;;;;;8.73;6.18;;;;;;;22.16;62.94;99856.06;812941;54;20580;-78
2021/08/22 00:04:34;;;;;;;9.45;6.00;;;;;;;22.17;63.41;99868.63;812425;54;20034;-77
2021/08/22 00:05:22;;;;;;;12.38;6.88;;;;;;;21.93;65.08;99887.47;812950;31;20509;-78
2021/08/22 00:06:17;;;;;;;14.07;7.30;;;;;;;22.00;64.79;99905.66;811997;47;20053;-77
2021/08/22 00:07:04;;;;;;;9.27;7.40;;;;;;;22.12;64.26;99891.06;811991;47;20034;-76
2021/08/22 00:08:17;;;;;;;8.18;5.90;;;;;;;22.21;64.23;99888.88;811919;47;20026;-77
2021/08/22 00:09:05;;;;;;;8.18;6.05;;;;;;;22.23;64.15;99897.66;812429;47;20031;-76
2021/08/22 00:09:56;;;;;;;8.43;6.55;;;;;;;22.28;63.80;99905.16;811954;54;20649;-77
2021/08/22 00:10:42;;;;;;;8.57;6.30;;;;;;;21.98;64.83;99908.56;812318;47;20126;-77
2021/08/22 00:11:31;;;;;;;8.93;5.65;;;;;;;21.86;65.22;99913.91;811379;47;20069;-77
2021/08/22 00:12:18;;;;;;;8.63;5.95;;;;;;;21.68;66.04;99922.84;811551;47;20160;-77
2021/08/22 00:13:06;;;;;;;11.00;6.28;;;;;;;21.55;67.08;99926.47;812114;39;20473;-77
2021/08/22 00:13:52;;;;;;;9.57;6.10;;;;;;;21.33;68.39;99951.31;812023;39;20665;-77
2021/08/22 00:14:41;;;;;;;12.30;7.47;;;;;;;21.16;69.70;99953.69;811859;54;20034;-78
2021/08/22 00:15:27;;;;;;;13.45;7.20;;;;;;;21.03;70.39;99970.91;811305;47;20883;-77
2021/08/22 00:16:15;;;;;;;11.43;6.50;;;;;;;20.90;71.66;99968.22;811789;47;20035;-77
2021/08/22 00:17:01;;;;;;;13.60;7.22;;;;;;;20.78;72.08;99975.41;811427;47;20555;-77
2021/08/22 00:17:50;;;;;;;9.95;6.53;;;;;;;20.70;73.21;99982.66;811680;47;20034;-78
2021/08/22 00:18:36;;;;;;;10.23;6.53;;;;;;;20.79;73.08;100002.34;811625;54;20077;-76
2021/08/22 00:19:25;;;;;;;13.13;6.63;;;;;;;20.70;73.93;99998.16;811769;54;20027;-77
2021/08/22 00:20:11;;;;;;;14.90;7.40;;;;;;;20.52;75.38;100012.38;811957;54;20574;-78
2021/08/22 00:21:00;;;;;;;14.10;7.22;;;;;;;20.32;75.93;100005.09;812066;47;20079;-76
2021/08/22 00:21:46;;;;;;;12.32;6.95;;;;;;;20.22;76.39;99997.38;811840;47;20045;-76
2021/08/22 00:22:38;;;;;;;11.88;7.03;;;;;;;20.37;76.66;100005.31;812169;54;20027;-77
2021/08/22 00:23:24;;;;;;;12.05;7.18;;;;;;;20.38;76.04;100011.56;812038;54;20542;-77
2021/08/22 00:24:13;;;;;;;13.05;7.20;;;;;;;20.05;77.83;100018.66;811764;54;20624;-77
2021/08/22 00:25:03;;;;;;;10.15;6.80;;;;;;;20.23;77.50;100015.34;812758;54;20061;-78
2021/08/22 00:25:52;;;;;;;13.52;6.85;;;;;;;20.28;76.68;99995.72;813861;54;20046;-80
2021/08/22 00:26:40;;;;;;;9.35;5.72;;;;;;;20.30;77.23;99999.06;814981;47;20065;-80
2021/08/22 00:54:19;;;;;;;5.18;3.38;;;;;;;18.73;81.32;99999.03;815537;54;20030;-79
2021/08/22 00:55:06;;;;;;;4.65;2.75;;;;;;;18.82;80.65;99993.22;815785;54;20038;-79
2021/08/22 00:55:57;;;;;;;4.65;2.83;;;;;;;18.81;80.65;99986.13;815646;46;20060;-77
2021/08/22 00:56:44;;;;;;;5.13;2.78;;;;;;;18.85;80.36;99992.84;816214;54;20057;-77
2021/08/22 00:57:32;;;;;;;5.03;2.45;;;;;;;18.84;80.45;99995.75;815900;54;20010;-82
2021/08/22 00:58:18;;;;;;;5.68;3.25;;;;;;;18.80;80.72;99997.19;815812;47;20097;-79
2021/08/22 00:59:09;;;;;;;4.88;2.55;;;;;;;18.77;80.73;99998.44;815903;54;20663;-77
2021/08/22 00:59:55;;;;;;;6.07;2.92;;;;;;;18.70;81.33;99992.97;816129;54;20022;-79
2021/08/22 01:00:44;;;;;;;6.43;3.03;;;;;;;18.78;81.13;99997.41;815342;47;20027;-81
2021/08/22 01:01:32;;;;;;;5.55;3.20;;;;;;;18.78;80.99;99997.41;815071;54;20038;-78
2021/08/22 01:02:25;;;;;;;7.30;3.08;;;;;;;18.72;81.93;99998.16;815902;54;20026;-78
2021/08/22 01:03:20;;;;;;;5.63;2.90;;;;;;;18.75;81.61;99989.66;815247;46;20712;-77
2021/08/22 01:04:15;;;;;;;5.18;3.05;;;;;;;18.75;81.76;99992.38;815422;54;20030;-79
2021/08/22 01:05:12;;;;;;;5.72;2.92;;;;;;;18.60;82.28;99994.38;815618;54;20034;-78
2021/08/22 01:06:04;;;;;;;5.00;3.22;;;;;;;18.62;82.68;99984.16;815521;54;20019;-80
2021/08/22 01:07:02;;;;;;;5.28;2.58;;;;;;;18.64;82.55;99980.25;816081;54;20035;-78
2021/08/22 01:07:54;;;;;;;4.97;2.80;;;;;;;18.63;82.23;99980.41;816186;54;20034;-77
2021/08/22 01:08:44;;;;;;;5.15;2.70;;;;;;;18.52;83.00;99992.66;815615;54;20640;-78
2021/08/22 01:09:37;;;;;;;4.97;2.90;;;;;;;18.49;83.00;99998.44;815675;54;20065;-78
2021/08/22 01:10:26;;;;;;;4.85;2.80;;;;;;;18.46;83.34;100004.28;815574;54;20042;-80
2021/08/22 01:11:19;;;;;;;6.22;3.00;;;;;;;18.57;83.03;100003.69;815144;54;20088;-78
2021/08/22 01:12:11;;;;;;;5.18;2.80;;;;;;;18.62;83.09;100003.09;815535;54;20046;-78
2021/08/22 01:13:04;;;;;;;3.97;2.47;;;;;;;18.75;82.43;100000.50;815729;54;20049;-79
2021/08/22 01:13:55;;;;;;;4.57;2.78;;;;;;;18.77;82.73;100001.13;815692;54;20070;-79
2021/08/22 01:14:48;;;;;;;4.43;2.50;;;;;;;18.82;82.68;100003.25;815492;54;20048;-80
2021/08/22 01:15:38;;;;;;;4.72;2.58;;;;;;;18.88;82.20;99996.19;816402;39;20433;-80
2021/08/22 01:16:30;;;;;;;5.22;2.40;;;;;;;18.91;81.99;99987.66;815558;47;20069;-81
2021/08/22 01:17:28;;;;;;;4.78;2.60;;;;;;;18.89;82.15;99995.16;815515;54;20050;-81
2021/08/22 01:18:20;;;;;;;4.70;2.47;;;;;;;18.93;81.85;99983.75;815862;54;20033;-80
2021/08/22 01:19:14;;;;;;;4.65;2.40;;;;;;;18.93;81.60;99974.78;815099;54;20098;-80
2021/08/22 01:20:10;;;;;;;4.60;2.33;;;;;;;18.89;81.70;99962.66;815588;54;20042;-79
2021/08/22 01:21:06;;;;;;;4.45;2.50;;;;;;;18.88;81.32;99955.56;816010;54;20038;-80
2021/08/22 01:21:56;;;;;;;5.88;2.63;;;;;;;18.92;81.54;99954.09;816055;54;20011;-80
2021/08/22 01:22:45;;;;;;;6.60;2.58;;;;;;;18.91;81.36;99949.72;815766;47;20094;-82
2021/08/22 01:23:43;;;;;;;5.00;2.30;;;;;;;18.90;81.35;99945.34;818746;39;20511;-82
2021/08/22 01:24:42;;;;;;;6.15;2.78;;;;;;;18.80;81.97;99934.91;816073;46;20038;-80
2021/08/22 01:25:31;;;;;;;4.95;2.60;;;;;;;18.82;81.54;99928.25;815627;47;20063;-78
2021/08/22 01:26:19;;;;;;;4.45;2.38;;;;;;;18.83;81.62;99929.91;815329;54;20050;-78
2021/08/22 01:27:20;;;;;;;4.10;1.98;;;;;;;18.85;81.79;99932.41;815801;54;20042;-79
2021/08/22 01:28:07;;;;;;;4.05;2.30;;;;;;;18.84;81.47;99919.94;815917;46;21500;-80
2021/08/22 01:28:57;;;;;;;5.03;2.13;;;;;;;18.85;81.57;99917.00;821379;39;20579;-79
2021/08/22 01:29:58;;;;;;;4.95;2.42;;;;;;;18.84;81.98;99920.75;815736;54;20655;-77
2021/08/22 01:31:04;;;;;;;4.68;2.22;;;;;;;18.85;81.66;99905.34;815681;54;20018;-77
2021/08/22 01:31:55;;;;;;;4.28;2.20;;;;;;;18.84;81.65;99909.09;815695;46;20064;-79
2021/08/22 01:32:47;;;;;;;4.47;2.45;;;;;;;18.88;81.75;99898.69;815452;54;20066;-80
2021/08/22 01:33:33;;;;;;;4.30;2.50;;;;;;;18.86;81.61;99888.03;815299;54;20699;-80
2021/08/22 01:34:41;;;;;;;5.05;2.63;;;;;;;18.81;81.71;99888.66;815369;47;20035;-78
2021/08/22 01:35:28;;;;;;;5.80;2.65;;;;;;;18.78;82.18;99872.84;815048;47;20185;-80
2021/08/22 01:36:18;;;;;;;5.40;2.50;;;;;;;18.77;82.19;99864.91;814953;47;20061;-78
2021/08/22 01:37:06;;;;;;;4.53;2.40;;;;;;;18.74;82.32;99857.19;815089;54;20069;-78
2021/08/22 01:37:57;;;;;;;6.25;2.63;;;;;;;18.70;82.21;99851.34;816179;39;20492;-78
2021/08/22 01:38:44;;;;;;;4.70;2.38;;;;;;;18.70;82.23;99848.66;814994;47;20133;-77
2021/08/22 01:39:34;;;;;;;6.95;1.92;;;;;;;18.70;82.34;99854.06;814576;47;20074;-77
2021/08/22 01:40:31;;;;;;;4.20;2.38;;;;;;;18.60;82.56;99856.31;814655;54;20030;-77
2021/08/22 01:41:21;;;;;;;4.72;2.70;;;;;;;18.62;82.56;99851.50;814541;47;20018;-79
2021/08/22 01:42:09;;;;;;;3.97;2.08;;;;;;;18.67;82.40;99858.00;814595;54;20038;-80
2021/08/22 01:42:59;;;;;;;4.60;2.28;;;;;;;18.64;82.58;99861.13;814516;47;20042;-78
2021/08/22 01:43:46;;;;;;;5.10;2.25;;;;;;;18.60;82.43;99859.03;814192;54;20069;-79
2021/08/22 01:44:35;;;;;;;4.05;2.13;;;;;;;18.66;82.44;99853.59;814352;54;20026;-78
2021/08/22 01:45:21;;;;;;;7.27;2.43;;;;;;;18.67;82.50;99859.88;814588;54;20073;-79
2021/08/22 01:46:08;;;;;;;5.88;2.50;;;;;;;18.68;82.29;99856.13;814921;54;20283;-79
2021/08/22 01:46:58;;;;;;;3.80;2.03;;;;;;;18.68;82.31;99851.53;814960;54;20034;-77
2021/08/22 01:47:48;;;;;;;4.50;2.33;;;;;;;18.70;82.20;99849.47;814797;54;20065;-80
2021/08/22 01:48:39;;;;;;;5.82;2.30;;;;;;;18.68;81.82;99850.72;815170;54;20026;-77
2021/08/22 01:49:26;;;;;;;3.92;2.20;;;;;;;18.66;82.02;99845.50;815078;47;20114;-79
2021/08/22 01:50:18;;;;;;;4.47;2.20;;;;;;;18.70;81.75;99854.06;814963;54;20042;-81
2021/08/22 01:51:13;;;;;;;4.45;2.47;;;;;;;18.66;82.15;99856.31;815908;31;20557;-78
2021/08/22 01:52:03;;;;;;;4.95;2.22;;;;;;;18.71;81.67;99855.72;815137;54;20011;-80
2021/08/22 01:52:52;;;;;;;4.25;2.05;;;;;;;18.76;81.66;99858.66;815006;54;20069;-79
2021/08/22 01:53:43;;;;;;;4.40;2.20;;;;;;;18.81;81.65;99853.47;815159;54;20034;-79
2021/08/22 01:54:30;;;;;;;4.30;2.28;;;;;;;18.85;81.21;99862.84;813998;47;20739;-77
2021/08/22 01:55:19;;;;;;;3.78;2.17;;;;;;;18.91;81.12;99850.38;814374;54;20050;-81
2021/08/22 01:56:06;;;;;;;3.85;1.95;;;;;;;18.89;81.29;99851.63;814062;54;20050;-80
2021/08/22 01:56:55;;;;;;;3.92;2.20;;;;;;;18.83;81.78;99851.38;813783;54;20094;-78
2021/08/22 01:57:43;;;;;;;4.85;2.22;;;;;;;18.85;81.48;99851.16;814111;54;20039;-78
2021/08/22 01:58:32;;;;;;;4.00;2.15;;;;;;;18.84;81.42;99849.53;813942;47;20073;-79
2021/08/22 01:59:18;;;;;;;4.43;2.17;;;;;;;18.85;80.98;99845.75;813725;47;20089;-79
2021/08/22 02:00:11;;;;;;;4.35;2.50;;;;;;;18.86;80.72;99847.44;813611;54;20041;-78
2021/08/22 02:00:58;;;;;;;4.22;2.35;;;;;;;18.85;80.53;99852.03;813644;54;20039;-78
2021/08/22 02:01:47;;;;;;;4.35;2.38;;;;;;;18.80;80.80;99845.53;814277;39;20430;-78
2021/08/22 02:02:33;;;;;;;5.57;2.00;;;;;;;18.83;80.69;99848.69;814027;54;20069;-80
2021/08/22 02:03:33;;;;;;;3.80;2.08;;;;;;;18.81;80.51;99834.50;813816;54;20026;-78
2021/08/22 02:04:24;;;;;;;5.82;2.60;;;;;;;18.68;80.65;99829.88;814087;54;20169;-78
2021/08/22 02:05:15;;;;;;;3.95;2.10;;;;;;;18.76;80.56;99815.34;814146;54;20585;-79
2021/08/22 02:06:07;;;;;;;4.10;1.90;;;;;;;18.78;80.41;99810.56;814258;54;20050;-79
2021/08/22 02:07:03;;;;;;;5.50;2.13;;;;;;;18.78;80.46;99817.84;813359;47;20046;-79
2021/08/22 02:07:50;;;;;;;4.22;2.10;;;;;;;18.75;80.26;99805.53;814045;54;20050;-77
2021/08/22 02:08:40;;;;;;;4.25;2.20;;;;;;;18.79;80.12;99814.94;813319;47;20159;-79
2021/08/22 02:09:33;;;;;;;4.65;2.38;;;;;;;18.71;80.29;99804.28;814096;54;20043;-78
2021/08/22 02:10:27;;;;;;;3.95;2.20;;;;;;;18.71;80.35;99806.97;814002;54;20042;-79
2021/08/22 02:11:18;;;;;;;5.05;2.10;;;;;;;18.71;80.08;99790.72;813766;54;20112;-78
2021/08/22 02:12:12;;;;;;;3.88;1.90;;;;;;;18.73;80.02;99793.25;814012;54;20034;-78
2021/08/22 02:13:02;;;;;;;4.18;2.15;;;;;;;18.72;80.08;99792.41;814100;54;20038;-79
2021/08/22 02:13:58;;;;;;;4.95;2.00;;;;;;;18.70;80.15;99794.50;814051;54;20616;-78
2021/08/22 02:14:53;;;;;;;3.58;1.83;;;;;;;18.72;79.84;99797.81;814306;54;20069;-78
2021/08/22 02:15:43;;;;;;;3.83;2.15;;;;;;;18.76;79.94;99793.69;814253;54;20042;-78
2021/08/22 02:16:31;;;;;;;4.68;2.10;;;;;;;18.80;79.66;99794.09;814070;54;20027;-77
2021/08/22 02:17:21;;;;;;;3.72;2.08;;;;;;;18.83;79.36;99797.22;814227;54;20033;-78
2021/08/22 02:18:15;;;;;;;5.05;2.00;;;;;;;18.84;79.46;99792.66;814382;54;20084;-80
2021/08/22 02:19:05;;;;;;;3.95;1.52;;;;;;;18.84;79.42;99798.91;813947;47;20069;-79
2021/08/22 02:19:55;;;;;;;4.22;2.00;;;;;;;18.82;79.45;99792.84;814073;54;20041;-78
2021/08/22 02:20:45;;;;;;;6.00;2.20;;;;;;;18.81;79.04;99791.19;814491;54;20030;-78
2021/08/22 02:21:34;;;;;;;4.07;2.15;;;;;;;18.71;79.59;99798.84;813668;54;20046;-78
2021/08/22 02:22:21;;;;;;;5.90;2.35;;;;;;;18.70;79.37;99800.75;813586;54;20038;-79
2021/08/22 02:23:12;;;;;;;4.00;2.17;;;;;;;18.74;79.63;99812.00;815142;39;20437;-78
2021/08/22 02:23:57;;;;;;;;;;;;;;;18.64;79.44;99808.84;814372;54;20073;-78
2021/08/22 02:24:47;;;;;;;4.47;2.40;;;;;;;18.71;79.54;99806.97;813875;54;19946;-77
2021/08/22 02:25:35;;;;;;;3.88;2.25;;;;;;;18.78;78.96;99810.56;814275;54;20042;-77
2021/08/22 02:26:38;;;;;;;3.83;2.08;;;;;;;18.83;79.05;99812.66;814396;54;20035;-80
2021/08/22 02:27:27;;;;;;;4.03;2.05;;;;;;;18.85;79.04;99811.41;813669;47;20639;-78
2021/08/22 02:28:17;;;;;;;3.90;2.15;;;;;;;18.83;79.00;99821.59;814046;54;20035;-79
2021/08/22 02:29:04;;;;;;;5.15;2.30;;;;;;;18.74;79.61;99827.41;814056;54;20056;-78
2021/08/22 02:29:55;;;;;;;4.35;2.22;;;;;;;18.80;79.85;99834.72;814004;54;20034;-78
2021/08/22 02:30:41;;;;;;;5.32;2.38;;;;;;;18.77;79.70;99833.25;814282;54;20030;-79
2021/08/22 02:31:30;;;;;;;4.75;2.47;;;;;;;18.77;79.77;99827.84;813553;47;20062;-78
2021/08/22 02:32:17;;;;;;;6.93;2.13;;;;;;;18.75;80.21;99835.31;813089;54;20727;-79
2021/08/22 02:33:07;;;;;;;3.90;2.20;;;;;;;18.86;79.92;99832.03;813516;54;20034;-78
2021/08/22 02:33:53;;;;;;;4.65;2.42;;;;;;;18.85;79.69;99830.34;813925;54;20061;-77
2021/08/22 02:34:45;;;;;;;5.68;2.35;;;;;;;18.85;80.01;99826.81;813703;39;20801;-79
2021/08/22 02:35:33;;;;;;;4.68;2.00;;;;;;;18.84;80.15;99828.69;813429;54;20038;-80
2021/08/22 02:36:23;;;;;;;4.30;2.25;;;;;;;18.85;79.67;99824.94;813427;54;20043;-78
2021/08/22 02:37:09;;;;;;;4.50;2.33;;;;;;;18.76;80.11;99834.28;813444;54;20038;-79
2021/08/22 02:37:58;;;;;;;4.85;2.50;;;;;;;18.74;80.10;99833.66;814014;54;20035;-78
2021/08/22 02:38:45;;;;;;;3.75;2.22;;;;;;;18.79;79.98;99833.91;813909;54;20059;-78
2021/08/22 02:39:35;;;;;;;4.70;2.00;;;;;;;18.66;80.33;99831.94;813800;54;20105;-78
2021/08/22 02:40:22;;;;;;;3.90;2.10;;;;;;;18.55;81.19;99846.91;814182;54;20031;-79
2021/08/22 02:41:10;;;;;;;4.47;2.33;;;;;;;18.43;81.74;99855.81;814164;54;20041;-79
2021/08/22 02:41:56;;;;;;;5.20;2.63;;;;;;;18.34;81.99;99856.00;813849;54;20130;-79
2021/08/22 02:42:52;;;;;;;5.50;2.55;;;;;;;18.26;82.67;99852.59;814167;54;20050;-78
2021/08/22 02:43:39;;;;;;;4.38;2.35;;;;;;;18.24;82.72;99860.94;813730;54;20062;-78
2021/08/22 02:44:34;;;;;;;4.22;2.42;;;;;;;18.29;82.63;99854.91;813691;54;20069;-80
2021/08/22 02:45:20;;;;;;;6.82;3.00;;;;;;;18.29;82.95;99857.63;812772;47;20102;-78
2021/08/22 02:46:09;;;;;;;4.32;2.55;;;;;;;18.26;82.51;99852.59;813270;54;20712;-78
2021/08/22 02:46:55;;;;;;;4.97;2.50;;;;;;;18.22;82.98;99850.31;813241;47;20038;-78
2021/08/22 02:47:46;;;;;;;6.30;2.67;;;;;;;18.16;83.46;99852.97;813344;47;20034;-78
2021/08/22 02:48:41;;;;;;;4.55;2.55;;;;;;;18.11;83.45;99850.03;813804;54;20034;-79
2021/08/22 02:49:34;;;;;;;5.75;2.83;;;;;;;18.07;83.52;99849.59;813649;39;20540;-78
2021/08/22 02:50:23;;;;;;;4.97;2.75;;;;;;;18.03;84.26;99859.16;813261;47;20126;-77
2021/08/22 02:51:11;;;;;;;6.18;2.30;;;;;;;18.00;84.02;99871.19;813230;46;20081;-78
2021/08/22 02:51:57;;;;;;;5.32;2.78;;;;;;;17.95;83.99;99861.97;813416;46;20610;-77
2021/08/22 02:52:46;;;;;;;4.38;2.38;;;;;;;17.99;84.05;99863.28;813466;46;20035;-78
2021/08/22 02:53:32;;;;;;;4.85;2.60;;;;;;;17.93;84.00;99868.41;813422;54;20606;-78
2021/08/22 02:54:20;;;;;;;5.43;2.95;;;;;;;17.95;84.35;99873.63;813016;47;20027;-77
2021/08/22 02:55:07;;;;;;;5.15;2.60;;;;;;;18.07;83.96;99865.81;812671;47;20027;-77
2021/08/22 02:55:57;;;;;;;5.30;2.63;;;;;;;18.09;83.48;99874.56;813984;39;20574;-78
2021/08/22 02:56:43;;;;;;;5.00;2.30;;;;;;;18.08;83.81;99878.31;814207;54;20071;-78
2021/08/22 02:57:40;;;;;;;4.90;2.60;;;;;;;18.08;83.57;99878.31;813315;47;20034;-77
2021/08/22 02:58:26;;;;;;;4.55;2.60;;;;;;;18.00;83.40;99873.06;813080;54;20046;-77
2021/08/22 02:59:14;;;;;;;4.72;2.33;;;;;;;17.96;83.64;99877.13;813813;47;20553;-77
2021/08/22 03:00:00;;;;;;;4.55;2.63;;;;;;;18.02;83.29;99877.22;813239;47;20608;-77
2021/08/22 03:00:49;;;;;;;5.10;2.25;;;;;;;18.01;83.57;99883.66;813215;54;20042;-79
2021/08/22 03:01:35;;;;;;;5.80;2.70;;;;;;;18.10;83.33;99881.66;813387;54;20753;-80
2021/08/22 03:02:23;;;;;;;5.43;2.20;;;;;;;18.09;83.15;99879.97;812834;47;20042;-77
2021/08/22 03:03:09;;;;;;;5.85;2.85;;;;;;;18.05;82.97;99881.41;813184;47;20050;-78
2021/08/22 03:03:58;;;;;;;5.32;2.15;;;;;;;18.07;82.90;99885.59;813292;54;20550;-77
2021/08/22 03:04:44;;;;;;;4.20;2.33;;;;;;;18.03;83.03;99886.19;812978;47;20038;-77
2021/08/22 03:05:35;;;;;;;5.55;2.35;;;;;;;18.12;82.56;99885.00;814319;39;20619;-78
2021/08/22 03:06:21;;;;;;;3.80;2.10;;;;;;;18.16;82.63;99882.72;813458;47;20031;-77
2021/08/22 03:07:18;;;;;;;5.10;2.30;;;;;;;18.08;83.30;99884.56;812978;39;20505;-78
2021/08/22 03:08:05;;;;;;;5.15;2.33;;;;;;;18.09;82.75;99898.91;813108;54;20046;-78
2021/08/22 03:08:53;;;;;;;4.13;1.80;;;;;;;18.22;82.46;99890.91;813316;47;20035;-78
2021/08/22 03:09:39;;;;;;;4.78;2.40;;;;;;;18.14;82.53;99891.03;812992;47;20035;-79
2021/08/22 03:10:28;;;;;;;6.38;1.95;;;;;;;18.29;81.90;99895.50;813264;46;20035;-79
2021/08/22 03:11:16;;;;;;;4.60;2.25;;;;;;;18.22;82.07;99890.91;813159;47;20026;-78
2021/08/22 03:12:05;;;;;;;6.28;2.30;;;;;;;18.17;82.43;99893.34;812776;54;20035;-78
2021/08/22 03:12:52;;;;;;;8.15;2.53;;;;;;;18.07;82.57;99892.84;813000;46;20046;-78
2021/08/22 03:13:41;;;;;;;4.38;2.33;;;;;;;18.21;82.34;99888.38;813029;47;20035;-80
2021/08/22 03:14:27;;;;;;;4.75;2.20;;;;;;;18.27;82.05;99892.16;813650;54;20042;-80
2021/08/22 03:15:18;;;;;;;4.80;2.45;;;;;;;18.27;81.61;99892.16;812998;47;20026;-78
2021/08/22 03:16:05;;;;;;;4.32;2.38;;;;;;;18.29;81.69;99899.03;813300;47;20065;-78
2021/08/22 03:16:53;;;;;;;4.47;2.00;;;;;;;18.34;81.64;99896.56;812749;47;20077;-78
2021/08/22 03:17:39;;;;;;;5.05;2.10;;;;;;;18.32;81.47;99889.69;813298;54;20039;-79
2021/08/22 03:18:28;;;;;;;4.07;2.28;;;;;;;18.33;81.59;99884.09;813118;54;20040;-79
2021/08/22 03:19:14;;;;;;;5.55;2.55;;;;;;;18.38;81.46;99888.91;813202;54;20064;-78
2021/08/22 03:20:04;;;;;;;3.97;2.13;;;;;;;18.36;81.23;99890.97;813115;54;20062;-78
2021/08/22 03:20:53;;;;;;;3.85;1.85;;;;;;;18.24;81.79;99887.97;812951;47;20102;-79
2021/08/22 03:21:45;;;;;;;4.20;2.28;;;;;;;18.16;81.83;99886.25;813084;54;20072;-79
2021/08/22 03:22:31;;;;;;;4.55;2.45;;;;;;;18.14;81.96;99887.50;812373;54;20073;-77
2021/08/22 03:23:19;;;;;;;6.03;2.40;;;;;;;18.16;81.90;99888.97;812533;47;20146;-79
2021/08/22 03:24:06;;;;;;;4.15;2.40;;;;;;;18.17;81.91;99874.41;812462;47;20042;-78
2021/08/22 03:24:55;;;;;;;4.78;2.58;;;;;;;18.26;81.66;99869.69;812526;54;20061;-77
2021/08/22 03:25:41;;;;;;;5.32;2.60;;;;;;;18.14;82.21;99876.69;811982;54;20038;-77
2021/08/22 03:26:30;;;;;;;7.28;3.28;;;;;;;18.21;82.30;99874.84;812484;54;20034;-79
2021/08/22 03:27:16;;;;;;;5.25;2.55;;;;;;;18.32;81.56;99878.88;812829;47;20063;-78
2021/08/22 03:28:04;;;;;;;5.28;2.63;;;;;;;18.38;81.36;99878.06;813088;54;20052;-78
2021/08/22 03:28:51;;;;;;;4.50;2.40;;;;;;;18.28;81.50;99883.00;812912;47;20064;-78
2021/08/22 03:29:39;;;;;;;4.28;2.22;;;;;;;18.33;81.57;99892.19;813166;47;20034;-77
2021/08/22 03:30:25;;;;;;;4.63;2.40;;;;;;;18.38;81.47;99895.13;812992;54;20047;-77
2021/08/22 03:31:14;;;;;;;5.03;2.70;;;;;;;18.24;81.82;99905.03;812804;47;20034;-77
2021/08/22 03:32:00;;;;;;;4.63;2.83;;;;;;;18.18;82.06;99908.53;812745;54;20046;-77
2021/08/22 03:32:49;;;;;;;4.97;2.55;;;;;;;18.20;82.06;99901.06;812763;47;20042;-79
2021/08/22 03:33:34;;;;;;;4.68;2.50;;;;;;;18.24;81.87;99905.03;813223;47;20046;-79
2021/08/22 03:34:23;;;;;;;5.35;2.55;;;;;;;18.30;81.90;99905.28;812916;47;20145;-77
2021/08/22 03:35:09;;;;;;;4.90;2.80;;;;;;;18.30;81.75;99911.53;812887;54;20045;-77
2021/08/22 03:36:00;;;;;;;4.38;2.38;;;;;;;18.28;81.96;99905.47;813200;54;20042;-79
2021/08/22 03:36:49;;;;;;;5.13;3.13;;;;;;;18.20;82.15;99908.34;812650;47;20086;-78
2021/08/22 03:37:35;;;;;;;5.30;2.97;;;;;;;18.16;82.39;99913.31;813000;39;20721;-77
2021/08/22 03:38:24;;;;;;;5.95;2.80;;;;;;;18.19;82.14;99915.63;812486;54;20574;-78
2021/08/22 03:39:10;;;;;;;5.05;2.53;;;;;;;18.19;82.39;99917.47;812708;47;20038;-77
2021/08/22 03:39:58;;;;;;;4.18;2.33;;;;;;;18.17;82.24;99923.09;812750;47;20043;-77
2021/08/22 03:40:44;;;;;;;4.47;2.42;;;;;;;18.28;82.22;99915.47;813247;54;20038;-78
2021/08/22 03:41:35;;;;;;;5.43;2.50;;;;;;;18.21;82.08;99916.28;813491;47;20069;-79
2021/08/22 03:42:21;;;;;;;5.88;2.63;;;;;;;18.24;82.26;99912.34;813539;54;20038;-79
2021/08/22 03:43:15;;;;;;;6.22;2.75;;;;;;;18.20;82.13;99917.31;813617;47;20034;-77
2021/08/22 03:44:01;;;;;;;5.05;2.50;;;;;;;18.30;82.01;99916.13;813637;47;20142;-80
2021/08/22 03:44:50;;;;;;;5.30;3.00;;;;;;;18.30;81.81;99921.53;813086;54;20061;-78
2021/08/22 03:45:36;;;;;;;3.97;2.13;;;;;;;18.24;81.92;99920.44;813181;54;20057;-78
2021/08/22 03:46:24;;;;;;;5.00;2.78;;;;;;;18.28;81.88;99921.72;812761;54;20042;-77
2021/08/22 03:47:10;;;;;;;5.50;2.60;;;;;;;18.33;81.70;99910.28;812388;47;20046;-77
2021/08/22 03:48:01;;;;;;;4.13;2.40;;;;;;;18.44;80.98;99917.03;813419;39;20416;-77
2021/08/22 03:48:47;;;;;;;3.67;2.08;;;;;;;18.49;81.04;99914.53;813953;54;20038;-79
2021/08/22 03:49:35;;;;;;;4.85;2.50;;;;;;;18.49;80.65;99914.53;813795;47;20062;-76
2021/08/22 03:50:21;;;;;;;4.85;2.63;;;;;;;18.58;80.67;99909.81;813194;54;20053;-78
2021/08/22 03:51:12;;;;;;;4.72;2.42;;;;;;;18.59;79.95;99912.31;813165;54;20027;-77
2021/08/22 03:51:58;;;;;;;4.20;2.33;;;;;;;18.67;80.14;99914.03;813096;47;20125;-79
2021/08/22 03:52:48;;;;;;;4.45;2.30;;;;;;;18.64;80.04;99906.28;813488;47;20062;-78
2021/08/22 03:53:35;;;;;;;4.18;2.25;;;;;;;18.64;79.90;99909.00;813608;54;20046;-80
2021/08/22 03:54:23;;;;;;;4.32;2.55;;;;;;;18.68;79.69;99911.09;814128;54;20033;-79
2021/08/22 03:55:10;;;;;;;4.88;2.25;;;;;;;18.69;79.77;99912.78;813866;54;20030;-78
2021/08/22 03:55:58;;;;;;;7.68;2.80;;;;;;;18.57;80.08;99914.38;813902;54;20057;-77
2021/08/22 03:56:44;;;;;;;4.95;2.70;;;;;;;18.47;80.69;99924.72;813417;54;20115;-79
2021/08/22 03:58:11;;;;;;;4.90;2.53;;;;;;;18.52;80.45;99916.84;813838;54;20090;-78
2021/08/22 03:58:57;;;;;;;6.65;2.38;;;;;;;18.38;80.94;99916.78;813519;47;20038;-78
2021/08/22 03:59:46;;;;;;;4.70;2.72;;;;;;;18.35;80.86;99919.91;812461;54;20038;-78
2021/08/22 04:00:32;;;;;;;6.07;2.92;;;;;;;18.34;81.20;99915.53;812923;54;20558;-76
2021/08/22 04:01:33;;;;;;;5.63;2.95;;;;;;;18.29;81.16;99906.31;812909;54;20034;-78
2021/08/22 04:02:21;;;;;;;5.45;2.90;;;;;;;18.45;80.50;99903.28;813026;47;20034;-77
2021/08/22 04:03:13;;;;;;;5.05;2.65;;;;;;;18.51;80.48;99910.63;812829;54;20061;-78
2021/08/22 04:03:59;;;;;;;4.50;2.72;;;;;;;18.48;80.23;99897.47;812433;54;20088;-77
2021/08/22 04:04:47;;;;;;;5.82;2.83;;;;;;;18.57;80.10;99903.53;812539;54;20034;-78
2021/08/22 04:06:00;;;;;;;4.93;2.90;;;;;;;18.53;80.75;99897.69;813400;54;20056;-76
2021/08/22 04:06:49;;;;;;;5.40;2.90;;;;;;;18.40;80.77;99913.88;813847;54;20055;-79
2021/08/22 04:07:38;;;;;;;4.68;2.67;;;;;;;18.36;81.54;99912.59;813052;54;20034;-77
2021/08/22 04:08:35;;;;;;;4.70;2.72;;;;;;;18.30;81.45;99914.22;815516;39;20525;-80
2021/08/22 04:09:25;;;;;;;5.78;2.65;;;;;;;18.36;81.04;99912.59;813829;47;20049;-78
2021/08/22 04:10:40;;;;;;;4.72;2.78;;;;;;;18.38;81.18;99908.66;815900;39;20461;-76
2021/08/22 04:12:59;;;;;;;;;;;;;;;18.38;81.38;99902.41;814472;47;20018;-78
2021/08/22 04:13:47;;;;;;;4.88;2.70;;;;;;;18.42;80.71;99900.97;814441;54;19950;-80
2021/08/22 04:15:57;;;;;;;5.30;2.40;;;;;;;18.38;80.98;99897.00;813877;54;20034;-77
2021/08/22 04:18:08;;;;;;;4.63;2.50;;;;;;;18.14;81.66;99904.56;814513;54;20526;-78
2021/08/22 04:19:01;;;;;;;4.97;2.58;;;;;;;18.06;82.19;99902.84;813838;54;20050;-77
2021/08/22 04:19:47;;;;;;;5.35;2.88;;;;;;;18.07;82.13;99900.97;813980;54;20041;-79
2021/08/22 04:20:35;;;;;;;5.22;2.72;;;;;;;18.04;82.07;99910.31;813735;54;20049;-78
2021/08/22 04:21:21;;;;;;;6.10;2.60;;;;;;;18.03;82.57;99908.66;813132;47;20034;-78
2021/08/22 04:22:13;;;;;;;4.82;2.45;;;;;;;18.10;81.93;99911.41;812889;54;20042;-77
2021/08/22 04:22:59;;;;;;;5.57;3.03;;;;;;;18.09;82.24;99909.72;813247;47;20034;-78
2021/08/22 04:23:48;;;;;;;5.10;2.90;;;;;;;18.13;82.13;99913.72;813500;47;20042;-78
2021/08/22 04:24:36;;;;;;;4.75;2.80;;;;;;;18.01;82.24;99915.28;812831;47;20125;-78
2021/08/22 04:25:24;;;;;;;6.07;2.75;;;;;;;17.99;82.43;99914.66;813763;54;20069;-78
2021/08/22 04:26:10;;;;;;;5.88;2.70;;;;;;;17.97;82.44;99906.75;813207;47;20043;-78
2021/08/22 04:26:56;;;;;;;5.32;2.67;;;;;;;18.05;82.43;99911.16;813656;54;20042;-77
2021/08/22 04:27:45;;;;;;;6.13;3.10;;;;;;;17.99;82.54;99909.25;812846;47;20134;-78
2021/08/22 04:28:31;;;;;;;5.90;2.88;;;;;;;18.11;81.86;99904.97;813483;54;20363;-78